createdAt,value
2019-03-23T00:00:40.227Z,20.87
2019-03-23T00:05:31.122Z,23.73
2019-03-23T00:10:22.009Z,23.90
2019-03-23T00:15:12.904Z,21.17
2019-03-23T00:20:04.720Z,21.47
2019-03-23T00:24:55.597Z,21.07
2019-03-23T00:29:47.246Z,23.40
2019-03-23T00:34:38.139Z,21.10
2019-03-23T00:39:29.064Z,21.40
2019-03-23T00:44:19.959Z,26.35
2019-03-23T00:49:10.845Z,26.27
2019-03-23T00:54:01.734Z,22.20
2019-03-23T00:58:53.370Z,22.30
2019-03-23T01:03:45.126Z,23.03
2019-03-23T01:08:36.023Z,21.27
2019-03-23T01:13:28.361Z,22.33
2019-03-23T01:18:19.986Z,24.12
2019-03-23T01:23:10.872Z,21.93
2019-03-23T01:28:01.753Z,22.30
2019-03-23T01:32:53.384Z,22.63
2019-03-23T01:37:45.013Z,20.67
2019-03-23T01:42:36.665Z,24.00
2019-03-23T01:47:27.559Z,23.47
2019-03-23T01:52:18.448Z,22.53
2019-03-23T01:57:09.387Z,24.80
2019-03-23T02:02:00.301Z,24.50
2019-03-23T02:06:51.202Z,26.48
2019-03-23T02:11:42.097Z,23.50
2019-03-23T02:16:32.993Z,23.10
2019-03-23T02:21:23.893Z,23.40
2019-03-23T02:26:15.542Z,22.10
2019-03-23T02:31:07.561Z,22.50
2019-03-23T02:35:58.113Z,25.55
2019-03-23T02:40:49.015Z,24.48
2019-03-23T02:45:39.931Z,23.90
2019-03-23T02:50:31.577Z,22.00
2019-03-23T02:55:22.491Z,21.80
2019-03-23T03:00:13.402Z,21.97
2019-03-23T03:05:05.042Z,22.47
2019-03-23T03:09:56.694Z,22.43
2019-03-23T03:14:47.595Z,25.80
2019-03-23T03:19:39.243Z,24.35
2019-03-23T03:24:30.167Z,21.87
2019-03-23T03:29:21.075Z,20.20
2019-03-23T03:34:11.982Z,21.63
2019-03-23T03:39:03.620Z,22.00
2019-03-23T03:43:54.523Z,22.73
2019-03-23T03:48:46.179Z,22.53
2019-03-23T03:53:37.111Z,25.60
2019-03-23T03:58:28.055Z,24.77
2019-03-23T04:03:18.959Z,22.10
2019-03-23T04:08:11.705Z,21.30
2019-03-23T04:13:00.814Z,21.10
2019-03-23T04:17:51.725Z,20.30
2019-03-23T04:22:42.632Z,20.37
2019-03-23T04:27:33.552Z,20.83
2019-03-23T04:32:24.453Z,23.52
2019-03-23T04:37:15.365Z,23.30
2019-03-23T04:42:06.283Z,22.33
2019-03-23T04:46:57.189Z,20.63
2019-03-23T04:51:48.825Z,20.83
2019-03-23T04:56:40.469Z,18.93
2019-03-23T05:01:31.373Z,19.70
2019-03-23T05:06:23.014Z,18.73
2019-03-23T05:11:14.657Z,22.80
2019-03-23T05:16:06.293Z,20.80
2019-03-23T05:20:57.924Z,18.63
2019-03-23T05:25:49.565Z,18.90
2019-03-23T05:30:41.242Z,18.90
2019-03-23T05:35:32.135Z,18.13
2019-03-23T05:40:23.056Z,17.87
2019-03-23T05:45:13.962Z,18.00
2019-03-23T05:50:04.853Z,19.85
2019-03-23T05:54:55.761Z,17.80
2019-03-23T05:59:46.675Z,20.10
2019-03-23T06:04:37.581Z,18.13
2019-03-23T06:09:28.487Z,17.40
2019-03-23T06:14:19.378Z,17.83
2019-03-23T06:19:10.285Z,16.50
2019-03-23T06:24:01.937Z,18.60
2019-03-23T06:28:52.892Z,18.83
2019-03-23T06:33:43.804Z,21.60
2019-03-23T06:38:34.747Z,22.03
2019-03-23T06:43:25.653Z,18.30
2019-03-23T06:48:16.553Z,16.73
2019-03-23T06:53:07.467Z,17.80
2019-03-23T06:57:58.388Z,18.40
2019-03-23T07:02:49.281Z,20.50
2019-03-23T07:07:40.193Z,19.87
2019-03-23T07:12:31.847Z,23.70
2019-03-23T07:17:22.744Z,23.07
2019-03-23T07:22:14.385Z,21.33
2019-03-23T07:27:05.286Z,21.30
2019-03-23T07:32:05.407Z,22.40
2019-03-23T07:36:47.859Z,20.87
2019-03-23T07:41:38.767Z,23.03
2019-03-23T07:46:30.445Z,23.83
2019-03-23T07:51:21.350Z,30.52
2019-03-23T07:56:12.248Z,31.23
2019-03-23T08:01:03.890Z,29.10
2019-03-23T08:05:54.793Z,29.57
2019-03-23T08:10:46.437Z,28.63
2019-03-23T08:15:37.356Z,28.67
2019-03-23T08:20:28.265Z,31.60
2019-03-23T08:25:19.908Z,31.60
2019-03-23T08:30:11.555Z,38.87
2019-03-23T08:35:02.444Z,38.00
2019-03-23T08:39:54.103Z,33.50
2019-03-23T08:44:45.017Z,31.17
2019-03-23T08:49:36.253Z,33.20
2019-03-23T08:54:27.214Z,34.87
2019-03-23T08:59:18.242Z,34.20
2019-03-23T09:04:09.165Z,38.40
2019-03-23T09:09:00.114Z,34.73
2019-03-23T09:13:51.765Z,37.87
2019-03-23T09:18:42.714Z,33.07
2019-03-23T09:23:33.614Z,30.73
2019-03-23T09:28:24.531Z,32.03
2019-03-23T09:33:15.449Z,33.47
2019-03-23T09:38:06.358Z,36.78
2019-03-23T09:42:57.330Z,37.17
2019-03-23T09:47:48.349Z,38.78
2019-03-23T09:52:39.268Z,36.10
2019-03-23T09:57:30.181Z,32.10
2019-03-23T10:02:21.144Z,29.40
2019-03-23T10:07:12.789Z,31.73
2019-03-23T10:12:03.688Z,36.47
2019-03-23T10:16:55.341Z,38.92
2019-03-23T10:21:46.228Z,34.97
2019-03-23T10:26:37.139Z,36.30
2019-03-23T10:31:28.059Z,32.87
2019-03-23T10:36:18.983Z,33.73
2019-03-23T10:41:09.886Z,34.67
2019-03-23T10:46:00.785Z,37.93
2019-03-23T10:50:51.689Z,38.60
2019-03-23T10:55:42.630Z,34.47
2019-03-23T11:00:33.553Z,33.00
2019-03-23T11:05:24.452Z,34.73
2019-03-23T11:10:15.356Z,32.93
2019-03-23T11:15:06.313Z,45.20
2019-03-23T11:19:58.487Z,42.65
2019-03-23T11:24:48.907Z,38.20
2019-03-23T11:29:40.605Z,38.57
2019-03-23T11:34:31.566Z,37.43
2019-03-23T11:39:23.322Z,33.93
2019-03-23T11:44:14.224Z,41.83
2019-03-23T11:49:05.982Z,41.50
2019-03-23T11:53:56.926Z,36.03
2019-03-23T11:58:47.839Z,35.20
2019-03-23T12:03:38.753Z,33.40
2019-03-23T12:08:29.640Z,33.30
2019-03-23T12:13:21.277Z,37.90
2019-03-23T12:18:12.201Z,37.90
2019-03-23T12:23:03.101Z,34.10
2019-03-23T12:27:54.764Z,33.53
2019-03-23T12:32:45.757Z,31.77
2019-03-23T12:37:37.406Z,35.65
2019-03-23T12:42:28.318Z,34.43
2019-03-23T12:47:19.971Z,32.17
2019-03-23T12:52:10.921Z,30.70
2019-03-23T12:57:01.815Z,29.27
2019-03-23T13:01:52.734Z,25.27
2019-03-23T13:06:43.751Z,27.83
2019-03-23T13:11:35.521Z,29.90
2019-03-23T13:16:25.563Z,28.63
2019-03-23T13:21:17.211Z,25.70
2019-03-23T13:26:08.111Z,25.93
2019-03-23T13:30:59.744Z,26.83
2019-03-23T13:35:51.402Z,24.70
2019-03-23T13:40:42.308Z,26.30
2019-03-23T13:45:42.402Z,25.83
2019-03-23T13:50:24.852Z,21.47
2019-03-23T13:55:24.438Z,23.23
2019-03-23T14:00:15.337Z,25.17
2019-03-23T14:05:15.632Z,25.07
2019-03-23T14:09:57.161Z,24.47
2019-03-23T14:14:48.072Z,22.10
2019-03-23T14:19:38.976Z,23.97
2019-03-23T14:24:30.628Z,26.00
2019-03-23T14:29:21.602Z,23.33
2019-03-23T14:34:12.528Z,25.77
2019-03-23T14:39:03.451Z,23.97
2019-03-23T14:43:54.369Z,22.90
2019-03-23T14:48:46.014Z,22.60
2019-03-23T14:53:37.671Z,25.90
2019-03-23T14:58:28.568Z,23.85
2019-03-23T15:03:20.201Z,21.43
2019-03-23T15:08:12.129Z,23.07
2019-03-23T15:13:03.063Z,20.90
2019-03-23T15:17:54.718Z,23.87
2019-03-23T15:22:45.634Z,21.90
2019-03-23T15:27:37.291Z,23.60
2019-03-23T15:32:28.198Z,20.53
2019-03-23T15:37:19.097Z,21.63
2019-03-23T15:42:10.763Z,20.17
2019-03-23T15:47:01.721Z,22.85
2019-03-23T15:51:52.649Z,20.15
2019-03-23T15:56:43.554Z,19.10
2019-03-23T16:01:34.462Z,18.90
2019-03-23T16:06:25.368Z,18.47
2019-03-23T16:11:16.333Z,16.47
2019-03-23T16:16:08.054Z,18.75
2019-03-23T16:20:58.977Z,17.10
2019-03-23T16:25:49.886Z,16.73
2019-03-23T16:30:40.786Z,16.00
2019-03-23T16:35:31.760Z,15.40
2019-03-23T16:40:22.721Z,16.08
2019-03-23T16:45:13.643Z,15.23
2019-03-23T16:50:04.546Z,17.10
2019-03-23T16:54:55.447Z,15.40
2019-03-23T16:59:46.394Z,14.23
2019-03-23T17:04:37.343Z,15.70
2019-03-23T17:09:28.253Z,14.38
2019-03-23T17:14:19.918Z,14.70
2019-03-23T17:19:10.906Z,14.15
2019-03-23T17:24:01.926Z,12.20
2019-03-23T17:28:53.013Z,12.90
2019-03-23T17:33:45.713Z,13.30
2019-03-23T17:38:36.972Z,12.68
2019-03-23T17:43:28.017Z,13.50
2019-03-23T17:48:19.725Z,13.20
2019-03-23T17:53:11.499Z,12.33
2019-03-23T17:58:05.196Z,11.70
2019-03-23T18:03:02.916Z,11.87
2019-03-23T18:07:55.177Z,12.33
2019-03-23T18:12:46.376Z,11.87
2019-03-23T18:17:37.313Z,12.00
2019-03-23T18:22:46.033Z,13.60
2019-03-23T18:27:37.135Z,12.20
2019-03-23T18:32:28.121Z,12.73
2019-03-23T18:37:20.367Z,11.87
2019-03-23T18:42:12.037Z,14.40
2019-03-23T18:47:03.714Z,15.43
2019-03-23T18:51:55.639Z,15.80
2019-03-23T18:56:47.400Z,15.13
2019-03-23T19:01:39.128Z,16.00
2019-03-23T19:06:30.260Z,18.10
2019-03-23T19:11:21.411Z,19.23
2019-03-23T19:16:12.671Z,20.17
2019-03-23T19:21:04.503Z,18.83
2019-03-23T19:25:55.474Z,18.27
2019-03-23T19:30:46.560Z,19.30
2019-03-23T19:35:38.466Z,20.30
2019-03-23T19:40:29.613Z,22.27
2019-03-23T19:45:21.495Z,21.15
2019-03-23T19:50:12.717Z,20.97
2019-03-23T19:55:05.227Z,21.40
2019-03-23T19:59:56.192Z,20.73
2019-03-23T20:04:48.041Z,23.13
2019-03-23T20:09:39.270Z,20.77
2019-03-23T20:14:30.284Z,22.03
2019-03-23T20:19:21.204Z,23.50
2019-03-23T20:24:12.356Z,22.50
2019-03-23T20:29:04.010Z,23.10
2019-03-23T20:33:54.920Z,22.00
2019-03-23T20:38:46.579Z,22.20
2019-03-23T20:43:37.473Z,24.85
2019-03-23T20:48:29.123Z,24.10
2019-03-23T20:53:20.028Z,22.80
2019-03-23T20:58:10.937Z,23.10
2019-03-23T21:03:02.577Z,22.00
2019-03-23T21:07:54.251Z,21.30
2019-03-23T21:12:45.225Z,22.97
2019-03-23T21:17:36.863Z,22.87
2019-03-23T21:22:28.513Z,24.63
2019-03-23T21:27:19.421Z,22.27
2019-03-23T21:32:11.065Z,23.97
2019-03-23T21:37:02.780Z,20.77
2019-03-23T21:41:53.694Z,22.10
2019-03-23T21:46:44.584Z,23.80
2019-03-23T21:51:41.698Z,22.00
2019-03-23T21:56:34.431Z,21.20
2019-03-23T22:01:25.364Z,20.93
2019-03-23T22:06:16.279Z,22.50
2019-03-23T22:11:07.176Z,21.80
2019-03-23T22:15:58.078Z,23.60
2019-03-23T22:20:48.982Z,24.47
2019-03-23T22:25:39.895Z,23.30
2019-03-23T22:30:31.095Z,22.30
2019-03-23T22:35:22.742Z,20.07
2019-03-23T22:40:14.391Z,22.90
2019-03-23T22:45:06.281Z,22.70
2019-03-23T22:49:57.188Z,23.73
2019-03-23T22:54:48.119Z,26.13
2019-03-23T22:59:39.021Z,24.53
2019-03-23T23:04:29.931Z,23.47
2019-03-23T23:09:20.901Z,22.57
2019-03-23T23:14:12.554Z,22.97
2019-03-23T23:19:03.449Z,23.03
2019-03-23T23:24:09.411Z,24.80
2019-03-23T23:29:00.322Z,28.73
2019-03-23T23:33:51.236Z,28.30
2019-03-23T23:38:42.893Z,24.97
2019-03-23T23:43:34.559Z,25.10
2019-03-23T23:48:25.449Z,25.57
2019-03-23T23:53:17.222Z,25.40
2019-03-23T23:58:08.121Z,26.23
